createdAt,value
2022-12-23T00:01:44.864Z,100307.19
2022-12-23T00:04:11.366Z,100308.03
2022-12-23T00:06:37.941Z,100313.22
2022-12-23T00:09:04.380Z,100314.13
2022-12-23T00:11:31.091Z,100314.13
2022-12-23T00:14:21.182Z,100317.66
2022-12-23T00:16:50.068Z,100322.00
2022-12-23T00:19:16.574Z,100322.91
2022-12-23T00:21:42.997Z,100327.28
2022-12-23T00:24:09.406Z,100333.31
2022-12-23T00:26:35.768Z,100337.75
2022-12-23T00:29:02.166Z,100335.13
2022-12-23T00:31:28.582Z,100341.28
2022-12-23T00:33:55.088Z,100342.94
2022-12-23T00:36:24.990Z,100347.28
2022-12-23T00:39:09.747Z,100349.06
2022-12-23T00:41:55.144Z,100348.19
2022-12-23T00:44:21.859Z,100358.56
2022-12-23T00:46:48.339Z,100347.38
2022-12-23T00:49:35.234Z,100349.13
2022-12-23T00:52:02.851Z,100344.88
2022-12-23T00:54:29.386Z,100350.97
2022-12-23T00:56:55.772Z,100355.25
2022-12-23T00:59:22.184Z,100355.31
2022-12-23T01:02:07.516Z,100356.22
2022-12-23T01:04:52.578Z,100364.94
2022-12-23T01:07:19.637Z,100371.91
2022-12-23T01:09:46.146Z,100374.50
2022-12-23T01:12:13.743Z,100372.72
2022-12-23T01:14:40.553Z,100373.63
2022-12-23T01:17:08.450Z,100375.41
2022-12-23T01:19:35.769Z,100383.19
2022-12-23T01:22:02.240Z,100373.75
2022-12-23T01:24:32.399Z,100382.34
2022-12-23T01:26:59.071Z,100380.66
2022-12-23T01:29:26.294Z,100393.66
2022-12-23T01:31:52.865Z,100397.09
2022-12-23T01:34:19.701Z,100396.25
2022-12-23T01:36:49.009Z,100396.25
2022-12-23T01:39:15.471Z,100404.97
2022-12-23T01:42:00.482Z,100404.03
2022-12-23T01:44:49.871Z,100407.47
2022-12-23T01:47:41.828Z,100411.81
2022-12-23T01:50:52.436Z,100412.69
2022-12-23T01:53:18.919Z,100414.50
2022-12-23T01:55:54.539Z,100415.34
2022-12-23T01:58:25.631Z,100427.50
2022-12-23T02:01:29.086Z,100427.63
2022-12-23T02:04:02.633Z,100437.94
2022-12-23T02:06:56.569Z,100440.53
2022-12-23T02:09:37.098Z,100439.69
2022-12-23T02:12:24.218Z,100445.03
2022-12-23T02:15:42.475Z,100453.66
2022-12-23T02:18:19.383Z,100449.38
2022-12-23T02:21:04.099Z,100446.78
2022-12-23T02:23:55.187Z,100450.38
2022-12-23T02:26:51.972Z,100454.75
2022-12-23T02:29:37.196Z,100461.66
2022-12-23T02:32:15.739Z,100463.50
2022-12-23T02:35:00.346Z,100468.78
2022-12-23T02:37:26.733Z,100476.72
2022-12-23T02:39:59.087Z,100478.41
2022-12-23T02:42:35.560Z,100481.06
2022-12-23T02:45:14.383Z,100486.41
2022-12-23T02:47:54.556Z,100478.78
2022-12-23T02:50:26.491Z,100484.13
2022-12-23T02:52:56.264Z,100488.56
2022-12-23T02:55:29.048Z,100492.88
2022-12-23T02:57:59.503Z,100500.75
2022-12-23T03:00:26.463Z,100500.00
2022-12-23T03:02:53.130Z,100508.06
2022-12-23T03:05:41.206Z,100500.34
2022-12-23T03:08:20.840Z,100507.44
2022-12-23T03:10:59.084Z,100510.25
2022-12-23T03:13:31.535Z,100509.25
2022-12-23T03:16:22.614Z,100504.94
2022-12-23T03:19:14.827Z,100505.75
2022-12-23T03:21:47.034Z,100504.00
2022-12-23T03:24:44.285Z,100505.69
2022-12-23T03:27:15.487Z,100499.59
2022-12-23T03:30:07.017Z,100502.19
2022-12-23T03:32:38.467Z,100500.50
2022-12-23T03:35:07.586Z,100503.09
2022-12-23T03:37:38.607Z,100503.09
2022-12-23T03:40:11.632Z,100505.59
2022-12-23T03:42:42.066Z,100507.31
2022-12-23T03:48:10.991Z,100518.44
2022-12-23T03:50:39.926Z,100514.16
2022-12-23T03:53:23.167Z,100511.50
2022-12-23T03:55:56.616Z,100512.41
2022-12-23T03:58:49.389Z,100504.78
2022-12-23T04:01:25.799Z,100508.28
2022-12-23T04:04:03.591Z,100511.72
2022-12-23T04:06:36.706Z,100523.75
2022-12-23T04:09:06.070Z,100535.91
2022-12-23T04:11:34.437Z,100540.19
2022-12-23T04:14:01.003Z,100545.38
2022-12-23T04:16:29.166Z,100545.44
2022-12-23T04:18:55.784Z,100548.94
2022-12-23T04:21:22.193Z,100559.31
2022-12-23T04:23:48.586Z,100570.53
2022-12-23T04:26:15.220Z,100572.28
2022-12-23T04:28:41.627Z,100574.03
2022-12-23T04:31:08.054Z,100567.09
2022-12-23T04:33:34.505Z,100567.03
2022-12-23T04:36:00.962Z,100566.25
2022-12-23T04:38:28.532Z,100564.50
2022-12-23T04:40:54.956Z,100564.50
2022-12-23T04:43:21.355Z,100554.13
2022-12-23T04:45:51.828Z,100557.63
2022-12-23T04:48:18.528Z,100562.81
2022-12-23T04:50:45.095Z,100552.44
2022-12-23T04:53:11.585Z,100545.56
2022-12-23T04:55:37.948Z,100545.56
2022-12-23T04:58:04.400Z,100542.13
2022-12-23T05:00:37.138Z,100540.47
2022-12-23T05:03:06.201Z,100543.06
2022-12-23T05:05:32.751Z,100542.28
2022-12-23T05:08:04.339Z,100549.31
2022-12-23T05:10:31.276Z,100544.34
2022-12-23T05:12:58.419Z,100548.81
2022-12-23T05:15:24.913Z,100550.72
2022-12-23T05:17:51.296Z,100549.94
2022-12-23T05:20:17.719Z,100544.84
2022-12-23T05:22:44.197Z,100558.72
2022-12-23T05:25:10.666Z,100564.00
2022-12-23T05:27:37.063Z,100573.53
2022-12-23T05:30:03.950Z,100569.13
2022-12-23T05:32:30.360Z,100573.50
2022-12-23T05:34:56.717Z,100578.69
2022-12-23T05:37:23.076Z,100581.31
2022-12-23T05:39:49.444Z,100580.41
2022-12-23T05:42:19.388Z,100582.97
2022-12-23T05:44:45.908Z,100589.75
2022-12-23T05:47:12.478Z,100599.31
2022-12-23T05:49:38.884Z,100591.44
2022-12-23T05:52:05.591Z,100593.97
2022-12-23T05:54:31.962Z,100593.03
2022-12-23T05:56:58.482Z,100594.84
2022-12-23T05:59:30.596Z,100591.38
2022-12-23T06:01:57.629Z,100590.38
2022-12-23T06:04:24.270Z,100593.81
2022-12-23T06:06:50.672Z,100590.31
2022-12-23T06:09:17.115Z,100582.53
2022-12-23T06:11:43.481Z,100585.97
2022-12-23T06:14:10.461Z,100590.25
2022-12-23T06:16:36.991Z,100590.25
2022-12-23T06:19:03.664Z,100592.84
2022-12-23T06:21:30.037Z,100582.47
2022-12-23T06:23:56.444Z,100568.66
2022-12-23T06:26:22.896Z,100566.03
2022-12-23T06:28:49.326Z,100565.16
2022-12-23T06:31:16.521Z,100564.38
2022-12-23T06:33:43.022Z,100563.56
2022-12-23T06:36:09.633Z,100576.53
2022-12-23T06:38:36.057Z,100573.91
2022-12-23T06:41:02.653Z,100575.66
2022-12-23T06:43:29.070Z,100579.16
2022-12-23T06:45:55.561Z,100580.94
2022-12-23T06:48:22.101Z,100585.25
2022-12-23T06:50:48.540Z,100589.59
2022-12-23T06:53:14.997Z,100601.69
2022-12-23T06:55:41.416Z,100602.56
2022-12-23T06:58:07.934Z,100594.78
2022-12-23T07:00:34.399Z,100595.63
2022-12-23T07:03:00.987Z,100595.63
2022-12-23T07:05:33.235Z,100606.94
2022-12-23T07:08:03.132Z,100605.16
2022-12-23T07:10:29.694Z,100606.00
2022-12-23T07:12:56.088Z,100610.34
2022-12-23T07:15:22.593Z,100612.94
2022-12-23T07:17:49.042Z,100620.66
2022-12-23T07:20:15.530Z,100612.88
2022-12-23T07:22:41.894Z,100619.75
2022-12-23T07:25:08.999Z,100632.69
2022-12-23T07:27:35.433Z,100629.28
2022-12-23T07:30:02.053Z,100626.63
2022-12-23T07:32:28.465Z,100626.63
2022-12-23T07:34:54.843Z,100627.50
2022-12-23T07:37:21.314Z,100635.22
2022-12-23T07:39:47.730Z,100629.16
2022-12-23T07:42:43.674Z,100623.97
2022-12-23T07:45:00.730Z,100619.63
2022-12-23T07:47:27.491Z,100617.09
2022-12-23T07:49:53.891Z,100612.72
2022-12-23T07:52:20.315Z,100598.09
2022-12-23T07:54:46.646Z,100604.06
2022-12-23T07:57:13.077Z,100603.22
2022-12-23T07:59:39.508Z,100603.22
2022-12-23T08:02:06.480Z,100604.06
2022-12-23T08:04:33.005Z,100599.69
2022-12-23T08:06:59.388Z,100601.41
2022-12-23T08:09:25.744Z,100597.88
2022-12-23T08:11:52.251Z,100602.16
2022-12-23T08:14:18.694Z,100595.22
2022-12-23T08:16:45.110Z,100589.97
2022-12-23T08:19:11.600Z,100589.03
2022-12-23T08:21:37.957Z,100596.88
2022-12-23T08:24:04.502Z,100584.84
2022-12-23T08:26:33.719Z,100592.56
2022-12-23T08:29:00.707Z,100587.38
2022-12-23T08:31:33.889Z,100589.88
2022-12-23T08:34:01.258Z,100593.31
2022-12-23T08:36:34.080Z,100580.34
2022-12-23T08:39:04.350Z,100575.03
2022-12-23T08:41:35.455Z,100564.66
2022-12-23T08:44:01.993Z,100564.59
2022-12-23T08:46:29.271Z,100568.00
2022-12-23T08:48:55.908Z,100567.09
2022-12-23T08:51:23.896Z,100570.59
2022-12-23T08:53:56.215Z,100568.00
2022-12-23T08:56:29.522Z,100551.63
2022-12-23T08:58:56.215Z,100543.84
2022-12-23T09:01:25.738Z,100543.75
2022-12-23T09:03:52.458Z,100535.13
2022-12-23T09:06:26.537Z,100538.66
2022-12-23T09:08:55.946Z,100536.88
2022-12-23T09:11:24.491Z,100530.94
2022-12-23T09:13:51.329Z,100530.94
2022-12-23T09:16:18.727Z,100533.53
2022-12-23T09:18:45.171Z,100532.69
2022-12-23T09:21:14.618Z,100529.16
2022-12-23T09:23:41.819Z,100536.06
2022-12-23T09:26:09.424Z,100530.00
2022-12-23T09:28:36.072Z,100520.50
2022-12-23T09:31:10.201Z,100524.63
2022-12-23T09:33:37.045Z,100532.47
2022-12-23T09:36:04.833Z,100535.84
2022-12-23T09:38:31.868Z,100528.13
2022-12-23T09:41:09.513Z,100528.00
2022-12-23T09:43:56.642Z,100530.59
2022-12-23T09:46:27.030Z,100521.94
2022-12-23T09:49:05.348Z,100519.34
2022-12-23T09:51:33.541Z,100517.69
2022-12-23T09:54:23.660Z,100511.56
2022-12-23T09:57:00.431Z,100508.06
2022-12-23T09:59:53.779Z,100491.56
2022-12-23T10:02:57.449Z,100481.13
2022-12-23T10:05:44.247Z,100477.72
2022-12-23T10:08:18.137Z,100478.53
2022-12-23T10:10:52.396Z,100460.38
2022-12-23T10:13:34.917Z,100461.97
2022-12-23T10:16:07.012Z,100460.31
2022-12-23T10:19:13.654Z,100455.03
2022-12-23T10:21:48.296Z,100436.88
2022-12-23T10:24:25.400Z,100435.91
2022-12-23T10:27:02.660Z,100443.59
2022-12-23T10:29:33.695Z,100441.91
2022-12-23T10:32:06.111Z,100451.28
2022-12-23T10:34:49.044Z,100437.44
2022-12-23T10:37:32.457Z,100439.91
2022-12-23T10:40:15.330Z,100431.38
2022-12-23T10:43:04.916Z,100429.53
2022-12-23T10:45:34.007Z,100431.38
2022-12-23T10:48:28.872Z,100422.53
2022-12-23T10:51:13.053Z,100422.53
2022-12-23T10:53:52.368Z,100419.94
2022-12-23T10:56:20.816Z,100419.03
2022-12-23T10:58:52.747Z,100414.66
2022-12-23T11:01:26.679Z,100413.84
2022-12-23T11:03:54.095Z,100406.06
2022-12-23T11:06:21.431Z,100405.97
2022-12-23T11:08:48.120Z,100398.16
2022-12-23T11:11:14.611Z,100388.66
2022-12-23T11:13:43.729Z,100388.66
2022-12-23T11:16:18.060Z,100389.41
2022-12-23T11:19:16.851Z,100387.66
2022-12-23T11:22:00.682Z,100385.97
2022-12-23T11:24:37.987Z,100387.72
2022-12-23T11:27:14.321Z,100385.97
2022-12-23T11:29:47.122Z,100376.50
2022-12-23T11:32:24.063Z,100375.59
2022-12-23T11:34:51.225Z,100370.38
2022-12-23T11:37:31.992Z,100364.31
2022-12-23T11:39:58.494Z,100359.09
2022-12-23T11:42:29.941Z,100340.94
2022-12-23T11:44:59.432Z,100333.16
2022-12-23T11:47:34.073Z,100323.63
2022-12-23T11:50:03.693Z,100308.88
2022-12-23T11:52:31.814Z,100305.38
2022-12-23T11:55:01.720Z,100307.03
2022-12-23T11:57:48.925Z,100299.09
2022-12-23T12:00:25.455Z,100289.63
2022-12-23T12:02:56.432Z,100283.53
2022-12-23T12:05:30.773Z,100275.75
2022-12-23T12:08:03.617Z,100286.97
2022-12-23T12:10:33.331Z,100276.59
2022-12-23T12:13:04.588Z,100275.75
2022-12-23T12:15:44.092Z,100266.19
2022-12-23T12:18:17.266Z,100264.53
2022-12-23T12:20:50.687Z,100256.75
2022-12-23T12:23:34.980Z,100261.94
2022-12-23T12:26:07.525Z,100254.25
2022-12-23T12:28:38.247Z,100252.53
2022-12-23T12:31:33.985Z,100246.38
2022-12-23T12:34:05.949Z,100230.06
2022-12-23T12:36:52.747Z,100223.09
2022-12-23T12:39:34.670Z,100213.63
2022-12-23T12:42:11.687Z,100205.09
2022-12-23T12:44:48.255Z,100201.66
2022-12-23T12:47:52.156Z,100187.03
2022-12-23T12:50:18.193Z,100177.41
2022-12-23T12:52:45.101Z,100176.63
2022-12-23T12:55:19.516Z,100169.63
2022-12-23T12:57:46.199Z,100161.06
2022-12-23T13:00:18.861Z,100161.91
2022-12-23T13:03:03.740Z,100160.13
2022-12-23T13:06:10.711Z,100155.78
2022-12-23T13:09:00.204Z,100147.16
2022-12-23T13:11:43.952Z,100146.25
2022-12-23T13:14:34.023Z,100146.91
2022-12-23T13:17:13.552Z,100149.50
2022-12-23T13:19:56.466Z,100141.63
2022-12-23T13:22:28.782Z,100145.16
2022-12-23T13:25:20.844Z,100147.78
2022-12-23T13:28:00.925Z,100148.59
2022-12-23T13:30:36.451Z,100146.00
2022-12-23T13:33:24.740Z,100140.81
2022-12-23T13:36:20.559Z,100136.63
2022-12-23T13:39:18.143Z,100139.22
2022-12-23T13:41:52.003Z,100142.72
2022-12-23T13:44:20.517Z,100144.56
2022-12-23T13:47:08.070Z,100145.31
2022-12-23T13:49:40.621Z,100126.34
2022-12-23T13:52:15.011Z,100121.97
2022-12-23T13:54:56.724Z,100105.56
2022-12-23T13:57:31.823Z,100100.47
2022-12-23T14:00:18.203Z,100093.50
2022-12-23T14:03:03.048Z,100084.88
2022-12-23T14:05:52.874Z,100068.50
2022-12-23T14:08:19.329Z,100051.34
2022-12-23T14:10:57.012Z,100047.88
2022-12-23T14:13:27.521Z,100040.97
2022-12-23T14:16:20.673Z,100047.75
2022-12-23T14:18:47.106Z,100046.03
2022-12-23T14:21:48.919Z,100037.91
2022-12-23T14:24:33.670Z,100034.34
2022-12-23T14:27:06.245Z,100035.09
2022-12-23T14:30:05.118Z,100037.56
2022-12-23T14:32:42.668Z,100028.97
2022-12-23T14:35:23.001Z,100037.56
2022-12-23T14:38:08.277Z,100037.69
2022-12-23T14:40:37.851Z,100037.84
2022-12-23T14:43:22.760Z,100043.97
2022-12-23T14:45:51.412Z,100056.19
2022-12-23T14:48:33.320Z,100051.84
2022-12-23T14:51:09.495Z,100058.78
2022-12-23T14:53:57.344Z,100053.50
2022-12-23T14:56:36.277Z,100057.78
2022-12-23T14:59:14.797Z,100055.09
2022-12-23T15:01:58.589Z,100059.28
2022-12-23T15:04:50.712Z,100042.88
2022-12-23T15:07:32.539Z,100042.00
2022-12-23T15:10:02.930Z,100054.25
2022-12-23T15:12:46.293Z,100039.53
2022-12-23T15:15:22.282Z,100024.94
2022-12-23T15:17:49.298Z,100032.84
2022-12-23T15:20:20.161Z,100031.00
2022-12-23T15:22:48.432Z,100025.81
2022-12-23T15:25:19.698Z,100012.91
2022-12-23T15:27:46.332Z,100007.06
2022-12-23T15:30:14.027Z,100016.59
2022-12-23T15:32:47.260Z,100021.78
2022-12-23T15:35:26.269Z,100009.66
2022-12-23T15:37:53.286Z,100012.44
2022-12-23T15:40:32.062Z,100028.81
2022-12-23T15:42:58.853Z,100028.81
2022-12-23T15:45:39.366Z,100019.28
2022-12-23T15:48:21.819Z,100021.03
2022-12-23T15:50:50.866Z,100045.28
2022-12-23T15:53:18.794Z,100045.41
2022-12-23T15:55:48.920Z,100045.22
2022-12-23T15:58:21.562Z,100036.41
2022-12-23T16:01:00.473Z,100022.53
2022-12-23T16:03:31.907Z,100025.28
2022-12-23T16:06:09.089Z,100037.34
2022-12-23T16:08:35.456Z,100048.75
2022-12-23T16:11:13.280Z,100043.38
2022-12-23T16:13:46.709Z,100035.59
2022-12-23T16:16:42.263Z,100023.44
2022-12-23T16:19:36.099Z,100047.66
2022-12-23T16:22:22.317Z,100039.00
2022-12-23T16:25:19.399Z,100029.50
2022-12-23T16:28:01.389Z,100026.91
2022-12-23T16:30:33.091Z,100025.13
2022-12-23T16:33:03.441Z,100024.31
2022-12-23T16:35:32.068Z,100030.41
2022-12-23T16:38:24.217Z,100037.16
2022-12-23T16:40:56.318Z,100038.94
2022-12-23T16:43:24.553Z,100037.34
2022-12-23T16:45:54.554Z,100033.00
2022-12-23T16:48:39.870Z,100035.50
2022-12-23T16:51:13.977Z,100031.16
2022-12-23T16:53:40.810Z,100036.41
2022-12-23T16:56:16.511Z,100040.69
2022-12-23T16:58:43.975Z,100034.75
2022-12-23T17:01:16.803Z,100037.34
2022-12-23T17:03:43.919Z,100047.75
2022-12-23T17:06:15.332Z,100048.50
2022-12-23T17:08:43.098Z,100039.00
2022-12-23T17:11:15.909Z,100051.09
2022-12-23T17:13:42.935Z,100056.28
2022-12-23T17:16:15.664Z,100053.59
2022-12-23T17:18:42.257Z,100050.16
2022-12-23T17:21:19.963Z,100059.53
2022-12-23T17:23:46.767Z,100057.94
2022-12-23T17:26:13.369Z,100051.09
2022-12-23T17:28:39.923Z,100050.25
2022-12-23T17:31:13.706Z,100057.19
2022-12-23T17:33:41.828Z,100055.53
2022-12-23T17:36:11.143Z,100055.44
2022-12-23T17:38:38.121Z,100049.41
2022-12-23T17:41:04.881Z,100052.84
2022-12-23T17:43:31.716Z,100047.66
2022-12-23T17:45:58.470Z,100040.69
2022-12-23T17:48:31.108Z,100057.94
2022-12-23T17:50:58.217Z,100040.44
2022-12-23T17:53:24.778Z,100043.78
2022-12-23T17:55:51.366Z,100047.94
2022-12-23T17:58:18.067Z,100047.03
2022-12-23T18:00:44.697Z,100038.25
2022-12-23T18:03:23.218Z,100045.84
2022-12-23T18:05:54.295Z,100049.94
2022-12-23T18:08:25.895Z,100050.59
2022-12-23T18:10:52.574Z,100049.66
2022-12-23T18:13:19.786Z,100057.28
2022-12-23T18:15:47.698Z,100057.09
2022-12-23T18:18:26.436Z,100062.13
2022-12-23T18:20:58.481Z,100061.13
2022-12-23T18:23:31.168Z,100064.38
2022-12-23T18:25:59.275Z,100075.41
2022-12-23T18:28:26.959Z,100071.81
2022-12-23T18:30:56.771Z,100069.03
2022-12-23T18:33:24.271Z,100067.19
2022-12-23T18:35:51.287Z,100079.91
2022-12-23T18:38:18.057Z,100087.53
2022-12-23T18:40:45.317Z,100089.19
2022-12-23T18:43:20.859Z,100094.22
2022-12-23T18:45:52.887Z,100093.28
2022-12-23T18:48:20.206Z,100100.16
2022-12-23T18:50:46.989Z,100098.28
2022-12-23T18:53:24.700Z,100095.31
2022-12-23T18:55:52.658Z,100107.31
2022-12-23T18:58:19.614Z,100106.31
2022-12-23T19:00:47.707Z,100118.34
2022-12-23T19:03:29.869Z,100099.25
2022-12-23T19:05:57.804Z,100116.69
2022-12-23T19:08:27.626Z,100117.53
2022-12-23T19:10:55.846Z,100111.50
2022-12-23T19:13:22.703Z,100107.13
2022-12-23T19:15:49.423Z,100113.16
2022-12-23T19:18:17.951Z,100124.41
2022-12-23T19:20:45.803Z,100113.16
2022-12-23T19:23:12.896Z,100123.53
2022-12-23T19:25:50.731Z,100126.06
2022-12-23T19:28:21.826Z,100113.91
2022-12-23T19:30:48.725Z,100124.28
2022-12-23T19:33:15.346Z,100126.06
2022-12-23T19:35:42.696Z,100138.22
2022-12-23T19:38:09.357Z,100131.34
2022-12-23T19:40:35.919Z,100146.03
2022-12-23T19:43:03.077Z,100130.50
2022-12-23T19:45:29.531Z,100140.91
2022-12-23T19:47:56.142Z,100130.69
2022-12-23T19:50:22.627Z,100142.75
2022-12-23T19:52:50.159Z,100151.38
2022-12-23T19:55:16.937Z,100153.88
2022-12-23T19:57:43.579Z,100153.97
2022-12-23T20:00:10.609Z,100160.94
2022-12-23T20:02:37.264Z,100160.84
2022-12-23T20:05:04.128Z,100174.75
2022-12-23T20:07:30.669Z,100171.31
2022-12-23T20:09:57.225Z,100176.59
2022-12-23T20:12:25.385Z,100180.91
2022-12-23T20:14:51.903Z,100184.25
2022-12-23T20:17:18.389Z,100194.63
2022-12-23T20:19:46.311Z,100197.97
2022-12-23T20:22:13.079Z,100197.97
2022-12-23T20:24:39.633Z,100193.63
2022-12-23T20:27:11.313Z,100209.00
2022-12-23T20:29:39.124Z,100200.31
2022-12-23T20:32:05.861Z,100205.44
2022-12-23T20:34:38.619Z,100213.09
2022-12-23T20:37:05.516Z,100215.72
2022-12-23T20:39:32.040Z,100213.03
2022-12-23T20:41:58.522Z,100224.25
2022-12-23T20:44:34.469Z,100228.53
2022-12-23T20:47:02.234Z,100229.38
2022-12-23T20:49:29.064Z,100246.66
2022-12-23T20:51:55.945Z,100237.00
2022-12-23T20:54:27.916Z,100235.25
2022-12-23T20:56:58.499Z,100253.44
2022-12-23T20:59:25.041Z,100256.94
2022-12-23T21:01:52.201Z,100258.72
2022-12-23T21:04:18.972Z,100256.13
2022-12-23T21:06:45.609Z,100269.94
2022-12-23T21:09:14.625Z,100269.84
2022-12-23T21:11:43.804Z,100276.72
2022-12-23T21:14:10.960Z,100271.50
2022-12-23T21:16:38.125Z,100277.56
2022-12-23T21:19:06.322Z,100279.31
2022-12-23T21:21:32.915Z,100293.16
2022-12-23T21:24:04.023Z,100292.31
2022-12-23T21:26:31.879Z,100302.81
2022-12-23T21:29:00.236Z,100296.78
2022-12-23T21:31:28.970Z,100300.22
2022-12-23T21:33:56.083Z,100308.91
2022-12-23T21:36:25.381Z,100307.25
2022-12-23T21:38:52.382Z,100316.91
2022-12-23T21:41:28.058Z,100315.13
2022-12-23T21:43:56.597Z,100320.34
2022-12-23T21:46:23.943Z,100318.47
2022-12-23T21:48:51.057Z,100326.28
2022-12-23T21:51:26.173Z,100327.09
2022-12-23T21:53:55.829Z,100335.78
2022-12-23T21:56:25.483Z,100334.91
2022-12-23T21:59:00.566Z,100339.28
2022-12-23T22:01:27.826Z,100347.16
2022-12-23T22:03:55.147Z,100354.13
2022-12-23T22:06:24.450Z,100351.50
2022-12-23T22:08:52.463Z,100352.34
2022-12-23T22:11:21.659Z,100354.13
2022-12-23T22:13:48.738Z,100355.88
2022-12-23T22:16:18.870Z,100368.94
2022-12-23T22:18:46.641Z,100375.09
2022-12-23T22:21:17.086Z,100364.00
2022-12-23T22:23:44.131Z,100378.03
2022-12-23T22:26:17.486Z,100392.03
2022-12-23T22:28:47.281Z,100395.53
2022-12-23T22:31:22.684Z,100400.91
2022-12-23T22:33:49.214Z,100406.09
2022-12-23T22:36:16.871Z,100409.53
2022-12-23T22:38:44.339Z,100409.53
2022-12-23T22:41:11.138Z,100410.34
2022-12-23T22:43:38.160Z,100423.44
2022-12-23T22:46:05.666Z,100426.97
2022-12-23T22:48:33.403Z,100426.13
2022-12-23T22:51:10.722Z,100425.19
2022-12-23T22:53:37.392Z,100432.28
2022-12-23T22:56:05.209Z,100439.34
2022-12-23T22:58:33.527Z,100441.94
2022-12-23T23:01:00.487Z,100437.75
2022-12-23T23:03:27.198Z,100440.44
2022-12-23T23:05:57.403Z,100443.88
2022-12-23T23:08:24.950Z,100443.03
2022-12-23T23:10:52.473Z,100443.03
2022-12-23T23:13:18.915Z,100450.84
2022-12-23T23:15:47.994Z,100458.63
2022-12-23T23:18:14.847Z,100451.66
2022-12-23T23:20:41.523Z,100458.63
2022-12-23T23:23:08.322Z,100466.44
2022-12-23T23:25:34.878Z,100476.81
2022-12-23T23:28:01.759Z,100464.72
2022-12-23T23:30:28.248Z,100467.41
2022-12-23T23:32:54.726Z,100469.94
2022-12-23T23:35:21.193Z,100465.56
2022-12-23T23:37:47.722Z,100471.63
2022-12-23T23:40:14.264Z,100476.88
2022-12-23T23:42:40.713Z,100489.88
2022-12-23T23:45:07.465Z,100489.03
2022-12-23T23:47:34.852Z,100508.06
2022-12-23T23:50:01.942Z,100498.50
2022-12-23T23:52:29.081Z,100504.63
2022-12-23T23:54:55.681Z,100506.28
2022-12-23T23:57:22.706Z,100513.25
2022-12-23T23:59:49.629Z,100514.16
